Time;durP1;ratioP1;P1;durP2;ratioP2;P2;SDS_P1;SDS_P2;PMS_P1;PMS_P2;Temp;Humidity;BMP_temperature;BMP_pressure;BME280_temperature;BME280_humidity;BME280_pressure;Samples;Min_cycle;Max_cycle;Signal;HPM_P1;HPM_P2
2021/07/02 00:01:54;;;;;;;;;;;18.00;80.10;;;;;;5033829;28;20512;-77
2021/07/02 00:04:20;;;;;;;28.02;20.70;;;18.00;80.10;;;;;;5033447;28;19958;-78
2021/07/02 00:06:46;;;;;;;;;;;18.00;80.00;;;;;;5033776;28;20030;-76
2021/07/02 00:09:12;;;;;;;26.10;18.80;;;17.80;80.80;;;;;;5033301;28;19905;-77
2021/07/02 00:11:37;;;;;;;;;;;17.90;80.30;;;;;;5033632;28;20025;-76
2021/07/02 00:14:04;;;;;;;28.92;20.33;;;18.00;80.20;;;;;;5033210;28;19952;-77
2021/07/02 00:16:30;;;;;;;29.35;19.52;;;17.90;80.00;;;;;;5033160;28;20421;-75
2021/07/02 00:18:56;;;;;;;30.33;20.65;;;17.90;80.50;;;;;;5033156;28;20100;-77
2021/07/02 00:21:22;;;;;;;;;;;17.80;80.80;;;;;;5033732;28;20081;-77
2021/07/02 00:23:47;;;;;;;28.75;20.00;;;17.70;80.80;;;;;;5033292;28;20000;-77
2021/07/02 00:26:13;;;;;;;;;;;17.80;80.60;;;;;;5033496;28;20021;-76
2021/07/02 00:28:39;;;;;;;25.88;19.27;;;17.90;80.60;;;;;;5033080;28;19928;-75
2021/07/02 00:31:04;;;;;;;;;;;17.80;81.00;;;;;;5033349;28;20501;-75
2021/07/02 00:33:30;;;;;;;24.45;17.92;;;17.70;81.10;;;;;;5033606;28;19905;-77
2021/07/02 00:35:55;;;;;;;;;;;17.70;81.20;;;;;;5033512;28;20436;-77
2021/07/02 00:38:21;;;;;;;25.90;17.58;;;17.60;81.70;;;;;;5032691;28;20372;-77
2021/07/02 00:40:47;;;;;;;;;;;17.70;81.10;;;;;;5033583;28;20035;-76
2021/07/02 00:43:12;;;;;;;27.83;19.02;;;17.80;80.40;;;;;;5033306;28;20280;-74
2021/07/02 00:45:38;;;;;;;;;;;17.60;81.40;;;;;;5033277;28;20028;-75
2021/07/02 00:48:04;;;;;;;27.13;17.55;;;17.60;82.20;;;;;;5032879;28;20364;-76
2021/07/02 00:50:31;;;;;;;25.67;18.92;;;17.80;81.00;;;;;;5032784;28;20038;-76
2021/07/02 00:52:57;;;;;;;23.92;17.27;;;17.50;81.50;;;;;;5033404;28;20022;-78
2021/07/02 00:55:23;;;;;;;22.35;17.08;;;17.40;82.10;;;;;;5032799;28;20075;-75
2021/07/02 00:57:49;;;;;;;25.13;17.77;;;17.60;81.40;;;;;;5032904;28;20056;-77
2021/07/02 01:00:15;;;;;;;;;;;17.70;81.00;;;;;;5033228;28;20057;-77
2021/07/02 01:02:41;;;;;;;25.58;17.27;;;17.70;80.80;;;;;;5032439;28;19905;-77
2021/07/02 01:05:09;;;;;;;22.15;16.77;;;17.60;81.20;;;;;;5032721;28;20147;-77
2021/07/02 01:07:35;;;;;;;25.75;19.15;;;17.70;80.80;;;;;;5031445;28;20040;-76
2021/07/02 01:10:03;;;;;;;25.42;18.27;;;17.80;80.50;;;;;;5032604;28;20474;-77
2021/07/02 01:12:30;;;;;;;22.60;16.80;;;17.80;80.40;;;;;;5032649;28;20029;-77
2021/07/02 01:14:55;;;;;;;26.65;18.80;;;17.50;81.70;;;;;;5032629;28;20026;-77
2021/07/02 01:17:21;;;;;;;;;;;17.50;81.90;;;;;;5033315;28;20083;-75
2021/07/02 01:19:54;;;;;;;24.67;17.77;;;17.60;81.90;;;;;;5032592;28;19905;-76
2021/07/02 01:22:28;;;;;;;27.08;18.65;;;17.50;82.20;;;;;;5032534;28;20394;-75
2021/07/02 01:24:56;;;;;;;27.65;19.20;;;17.30;83.20;;;;;;5033742;28;20033;-76
2021/07/02 01:27:23;;;;;;;23.25;16.48;;;17.40;82.60;;;;;;5036150;28;20525;-76
2021/07/02 01:29:49;;;;;;;22.33;16.20;;;17.40;82.70;;;;;;5036019;28;20140;-75
2021/07/02 01:32:17;;;;;;;25.38;17.45;;;17.70;81.00;;;;;;5036086;28;20036;-76
2021/07/02 01:34:43;;;;;;;25.40;18.67;;;17.70;80.90;;;;;;5035817;28;20466;-76
2021/07/02 01:37:10;;;;;;;23.88;17.45;;;17.50;82.10;;;;;;5035814;28;20053;-77
2021/07/02 01:39:39;;;;;;;23.48;17.77;;;17.50;82.30;;;;;;5036005;28;20025;-76
2021/07/02 01:42:06;;;;;;;25.25;17.48;;;17.30;83.00;;;;;;5036022;28;20022;-75
2021/07/02 01:44:34;;;;;;;22.70;16.85;;;17.30;83.20;;;;;;5036062;28;20060;-76
2021/07/02 01:47:00;;;;;;;25.17;17.83;;;17.50;82.10;;;;;;5035783;28;20079;-76
2021/07/02 01:49:26;;;;;;;;;;;17.70;81.00;;;;;;5035994;28;20432;-75
2021/07/02 01:51:51;;;;;;;24.15;18.13;;;17.50;81.30;;;;;;5035814;28;19992;-78
2021/07/02 01:54:17;;;;;;;;;;;17.20;82.90;;;;;;5036176;28;20209;-76
2021/07/02 01:56:48;;;;;;;24.58;18.15;;;17.10;83.60;;;;;;5035625;28;19905;-76
2021/07/02 01:59:26;;;;;;;24.35;17.90;;;17.00;83.80;;;;;;5035896;28;20052;-75
2021/07/02 02:01:52;;;;;;;25.58;18.27;;;16.90;84.40;;;;;;5034575;28;20061;-76
2021/07/02 02:04:19;;;;;;;;;;;17.00;83.60;;;;;;5035926;28;20068;-76
2021/07/02 02:06:45;;;;;;;21.60;15.95;;;17.20;82.70;;;;;;5035472;28;19951;-76
2021/07/02 02:09:10;;;;;;;;;;;17.20;82.80;;;;;;5035839;28;20030;-75
2021/07/02 02:11:36;;;;;;;22.65;17.52;;;17.20;82.30;;;;;;5035325;28;19992;-75
2021/07/02 02:14:02;;;;;;;;;;;17.40;82.00;;;;;;5035812;28;20096;-77
2021/07/02 02:16:28;;;;;;;23.00;16.08;;;17.10;83.10;;;;;;5035272;28;19963;-74
2021/07/02 02:18:54;;;;;;;;;;;17.30;82.80;;;;;;5035658;28;20026;-75
2021/07/02 02:21:20;;;;;;;25.23;16.55;;;17.50;82.10;;;;;;5033842;28;19909;-77
2021/07/02 02:23:45;;;;;;;;;;;17.60;81.00;;;;;;5035470;28;20060;-75
2021/07/02 02:26:11;;;;;;;28.08;18.73;;;17.70;81.00;;;;;;5033730;28;19905;-76
2021/07/02 02:28:37;;;;;;;;;;;17.50;81.20;;;;;;5035582;28;20017;-76
2021/07/02 02:31:03;;;;;;;24.98;17.77;;;17.20;82.70;;;;;;5034934;28;19909;-76
2021/07/02 02:33:29;;;;;;;24.08;17.23;;;17.30;82.30;;;;;;5034911;28;20032;-77
2021/07/02 02:35:55;;;;;;;;;;;17.20;82.40;;;;;;5034320;28;20384;-78
2021/07/02 02:38:20;;;;;;;24.10;17.00;;;17.20;82.40;;;;;;5033194;28;19924;-75
2021/07/02 02:40:46;;;;;;;;;;;17.20;82.20;;;;;;5035334;28;20436;-75
2021/07/02 02:43:12;;;;;;;28.67;19.13;;;17.10;83.00;;;;;;5034733;28;20281;-77
2021/07/02 02:45:37;;;;;;;;;;;17.20;82.50;;;;;;5035155;28;20068;-76
2021/07/02 02:48:03;;;;;;;27.85;18.55;;;17.20;82.90;;;;;;5034868;28;19912;-75
2021/07/02 02:50:29;;;;;;;27.05;18.65;;;17.20;83.10;;;;;;5034564;28;20026;-76
2021/07/02 02:52:55;;;;;;;;;;;17.20;82.50;;;;;;5035475;28;20033;-77
2021/07/02 02:55:21;;;;;;;23.17;16.65;;;17.10;83.10;;;;;;5034428;28;20361;-75
2021/07/02 02:57:47;;;;;;;27.25;19.00;;;17.20;82.60;;;;;;5034470;28;20105;-75
2021/07/02 03:00:13;;;;;;;;;;;17.40;81.50;;;;;;5035065;28;20433;-77
2021/07/02 03:02:39;;;;;;;28.08;18.35;;;17.30;81.60;;;;;;5033912;28;19909;-75
2021/07/02 03:05:05;;;;;;;;;;;17.40;81.30;;;;;;5034752;28;20028;-77
2021/07/02 03:07:30;;;;;;;28.77;20.50;;;17.30;81.50;;;;;;5034459;28;20362;-77
2021/07/02 03:09:56;;;;;;;;;;;17.10;82.50;;;;;;5034612;28;20030;-76
2021/07/02 03:12:22;;;;;;;26.77;18.20;;;17.20;82.50;;;;;;5034155;28;19955;-76
2021/07/02 03:14:49;;;;;;;;;;;17.20;83.00;;;;;;5033236;28;20478;-76
2021/07/02 03:17:14;;;;;;;27.73;18.67;;;17.40;81.90;;;;;;5032776;28;20336;-77
2021/07/02 03:19:40;;;;;;;;;;;17.20;82.00;;;;;;5034435;28;20161;-76
2021/07/02 03:22:06;;;;;;;28.00;18.88;;;17.00;82.70;;;;;;5034056;28;19912;-75
2021/07/02 03:24:31;;;;;;;;;;;17.00;83.10;;;;;;5034303;28;20053;-77
2021/07/02 03:26:57;;;;;;;29.00;18.77;;;16.80;83.90;;;;;;5033907;28;19904;-76
2021/07/02 03:29:23;;;;;;;;;;;17.00;83.30;;;;;;5034313;28;20541;-75
2021/07/02 03:31:49;;;;;;;29.63;19.70;;;17.00;83.00;;;;;;5033777;28;19913;-76
2021/07/02 03:34:14;;;;;;;;;;;16.90;84.30;;;;;;5034247;28;20018;-74
2021/07/02 03:36:40;;;;;;;27.40;18.58;;;16.80;84.30;;;;;;5033521;28;19906;-77
2021/07/02 03:39:05;;;;;;;;;;;16.70;84.30;;;;;;5034172;28;20137;-76
2021/07/02 03:41:32;;;;;;;26.20;17.58;;;16.70;84.50;;;;;;5034076;28;20337;-77
2021/07/02 03:43:58;;;;;;;23.92;17.35;;;16.80;84.30;;;;;;5032286;28;20096;-77
2021/07/02 03:46:23;;;;;;;;;;;16.90;83.90;;;;;;5033969;28;20104;-76
2021/07/02 03:48:49;;;;;;;26.30;18.67;;;16.80;84.30;;;;;;5033312;28;19905;-75
2021/07/02 03:51:14;;;;;;;;;;;16.70;84.70;;;;;;5034253;28;20022;-76
2021/07/02 03:53:42;;;;;;;27.75;18.02;;;16.70;85.00;;;;;;5033791;28;19905;-76
2021/07/02 03:56:08;;;;;;;27.15;19.15;;;16.90;84.30;;;;;;5033474;28;20025;-78
2021/07/02 03:58:34;;;;;;;29.98;18.05;;;17.10;83.30;;;;;;5033388;28;20014;-76
2021/07/02 04:00:59;;;;;;;;;;;17.10;83.20;;;;;;5034246;28;20032;-76
2021/07/02 04:03:28;;;;;;;29.10;18.50;;;17.00;83.50;;;;;;5033329;28;19911;-75
2021/07/02 04:05:54;;;;;;;28.90;19.27;;;17.10;83.10;;;;;;5032009;28;20034;-77
2021/07/02 04:08:20;;;;;;;;;;;17.00;83.60;;;;;;5033744;28;20108;-75
2021/07/02 04:10:45;;;;;;;28.73;18.55;;;17.10;83.40;;;;;;5033198;28;20325;-75
2021/07/02 04:13:12;;;;;;;;;;;17.10;83.20;;;;;;5032322;28;20113;-76
2021/07/02 04:15:38;;;;;;;30.35;19.27;;;17.00;83.60;;;;;;5033342;28;19905;-75
2021/07/02 04:18:05;;;;;;;;;;;17.10;83.30;;;;;;5033561;28;20049;-77
2021/07/02 04:20:31;;;;;;;25.58;17.38;;;17.00;84.10;;;;;;5033319;28;20316;-78
2021/07/02 04:22:56;;;;;;;;;;;17.10;83.70;;;;;;5033432;28;20030;-76
2021/07/02 04:25:22;;;;;;;30.10;19.38;;;16.90;84.20;;;;;;5033049;28;19931;-76
2021/07/02 04:27:48;;;;;;;;;;;16.80;84.20;;;;;;5033576;28;20029;-75
2021/07/02 04:30:14;;;;;;;23.30;16.27;;;17.00;83.70;;;;;;5033107;28;19963;-77
2021/07/02 04:32:40;;;;;;;25.88;18.38;;;17.00;82.90;;;;;;5033099;28;20026;-76
2021/07/02 04:35:06;;;;;;;;;;;17.00;82.90;;;;;;5033509;28;20090;-75
2021/07/02 04:37:32;;;;;;;27.38;19.77;;;16.70;84.40;;;;;;5032702;28;19924;-77
2021/07/02 04:39:57;;;;;;;;;;;16.70;84.50;;;;;;5033398;28;20390;-76
2021/07/02 04:42:23;;;;;;;28.55;17.73;;;16.80;84.30;;;;;;5032968;28;19911;-76
2021/07/02 04:44:49;;;;;;;;;;;16.70;85.00;;;;;;5033241;28;20029;-74
2021/07/02 04:47:14;;;;;;;27.67;17.55;;;17.00;83.30;;;;;;5032886;28;19912;-75
2021/07/02 04:49:40;;;;;;;;;;;17.10;82.70;;;;;;5033173;28;20092;-77
2021/07/02 04:52:06;;;;;;;26.70;17.08;;;17.10;82.60;;;;;;5033131;28;19995;-75
2021/07/02 04:54:32;;;;;;;;;;;17.10;82.80;;;;;;5033235;28;20021;-76
2021/07/02 04:56:59;;;;;;;21.00;15.48;;;17.00;82.70;;;;;;5031702;28;20372;-77
2021/07/02 04:59:34;;;;;;;24.42;16.48;;;16.90;83.50;;;;;;5033597;28;20017;-76
2021/07/02 05:02:00;;;;;;;25.50;16.98;;;16.90;83.70;;;;;;5035090;28;20026;-76
2021/07/02 05:04:26;;;;;;;;;;;16.80;83.70;;;;;;5037169;28;20021;-77
2021/07/02 05:06:52;;;;;;;22.00;15.52;;;16.80;83.40;;;;;;5035260;28;19909;-76
2021/07/02 05:09:17;;;;;;;;;;;16.70;84.10;;;;;;5036890;28;20060;-76
2021/07/02 05:11:43;;;;;;;26.63;17.02;;;16.80;83.70;;;;;;5036423;28;20095;-76
2021/07/02 05:14:09;;;;;;;;;;;16.80;83.20;;;;;;5036794;28;20021;-75
2021/07/02 05:16:34;;;;;;;24.23;16.65;;;16.80;83.90;;;;;;5036438;28;19905;-77
2021/07/02 05:19:00;;;;;;;;;;;16.90;83.40;;;;;;5037261;28;20076;-75
2021/07/02 05:21:26;;;;;;;20.83;14.68;;;16.90;83.40;;;;;;5036709;28;19905;-76
2021/07/02 05:23:52;;;;;;;;;;;17.00;82.50;;;;;;5035384;28;20367;-77
2021/07/02 05:26:18;;;;;;;22.00;14.98;;;17.00;82.70;;;;;;5034937;28;19912;-77
2021/07/02 05:28:43;;;;;;;;;;;17.40;81.40;;;;;;5036610;28;20116;-76
2021/07/02 05:31:09;;;;;;;23.05;16.13;;;17.50;80.60;;;;;;5036027;28;20277;-76
2021/07/02 05:33:35;;;;;;;;;;;17.60;79.80;;;;;;5036498;28;20017;-77
2021/07/02 05:36:01;;;;;;;23.30;15.10;;;17.60;80.10;;;;;;5035961;28;20003;-76
2021/07/02 05:38:27;;;;;;;23.05;14.48;;;17.70;80.00;;;;;;5035800;28;20052;-77
2021/07/02 05:40:55;;;;;;;;;;;17.60;80.30;;;;;;5036659;28;20025;-77
2021/07/02 05:43:22;;;;;;;22.67;15.23;;;17.60;80.20;;;;;;5034612;28;19905;-78
2021/07/02 05:45:48;;;;;;;23.05;14.20;;;17.60;80.60;;;;;;5035847;28;20028;-78
2021/07/02 05:48:17;;;;;;;23.15;16.00;;;17.80;80.30;;;;;;5036221;28;20453;-77
2021/07/02 05:50:43;;;;;;;21.63;14.35;;;17.80;79.60;;;;;;5034419;28;20121;-77
2021/07/02 05:53:09;;;;;;;22.40;14.82;;;17.80;80.00;;;;;;5035713;28;20029;-78
2021/07/02 05:55:35;;;;;;;18.48;13.40;;;17.70;80.00;;;;;;5035722;28;20028;-76
2021/07/02 05:58:01;;;;;;;;;;;17.80;79.70;;;;;;5036008;28;20030;-75
2021/07/02 06:00:27;;;;;;;22.58;14.52;;;17.90;78.60;;;;;;5035839;28;19905;-76
2021/07/02 06:02:53;;;;;;;23.40;14.77;;;17.90;79.30;;;;;;5035590;28;20025;-78
2021/07/02 06:05:20;;;;;;;21.67;14.23;;;18.00;78.80;;;;;;5035460;28;20091;-76
2021/07/02 06:08:05;;;;;;;19.45;14.90;;;18.20;78.30;;;;;;5034116;28;20022;-75
2021/07/02 06:10:31;;;;;;;20.85;14.52;;;18.50;77.00;;;;;;5034915;28;20040;-76
2021/07/02 06:12:57;;;;;;;20.70;13.98;;;18.70;76.00;;;;;;5034058;28;20021;-77
2021/07/02 06:15:23;;;;;;;;;;;18.70;76.40;;;;;;5035752;28;20025;-77
2021/07/02 06:17:50;;;;;;;19.58;12.98;;;18.90;75.30;;;;;;5033887;28;20011;-76
2021/07/02 06:20:18;;;;;;;19.85;12.88;;;19.00;75.00;;;;;;5035363;28;20029;-77
2021/07/02 06:22:44;;;;;;;18.38;13.38;;;19.20;73.80;;;;;;5035141;28;20400;-77
2021/07/02 06:25:12;;;;;;;19.02;13.05;;;19.20;73.60;;;;;;5035285;28;20091;-76
2021/07/02 06:27:38;;;;;;;18.85;13.15;;;19.20;74.00;;;;;;5035404;28;20021;-77
2021/07/02 06:30:05;;;;;;;18.67;12.43;;;19.40;72.90;;;;;;5035238;28;20032;-76
2021/07/02 06:32:31;;;;;;;19.83;13.75;;;19.50;73.10;;;;;;5034994;28;20014;-77
2021/07/02 06:34:58;;;;;;;20.67;14.70;;;19.20;73.80;;;;;;5034848;28;20052;-75
2021/07/02 06:37:28;;;;;;;20.63;14.02;;;18.80;74.90;;;;;;5033260;28;20445;-75
2021/07/02 06:39:54;;;;;;;18.95;14.10;;;18.70;76.50;;;;;;5034265;28;20029;-76
2021/07/02 06:42:20;;;;;;;21.10;14.13;;;19.20;74.90;;;;;;5034838;28;20036;-77
2021/07/02 06:44:46;;;;;;;20.25;14.55;;;19.40;73.60;;;;;;5034799;28;20101;-76
2021/07/02 06:47:12;;;;;;;19.75;13.73;;;19.20;74.60;;;;;;5034594;28;20022;-75
2021/07/02 06:49:39;;;;;;;19.10;13.07;;;19.30;73.80;;;;;;5034830;28;20029;-76
2021/07/02 06:52:07;;;;;;;19.63;13.43;;;19.50;73.40;;;;;;5033260;28;20112;-75
2021/07/02 06:54:33;;;;;;;18.88;13.98;;;19.70;72.80;;;;;;5034754;28;20026;-77
2021/07/02 06:57:03;;;;;;;18.15;14.02;;;19.70;72.80;;;;;;5034512;28;20017;-77
2021/07/02 06:59:33;;;;;;;19.67;13.43;;;19.70;72.20;;;;;;5034436;28;20359;-78
2021/07/02 07:02:00;;;;;;;20.77;14.30;;;19.70;72.90;;;;;;5034434;28;20062;-77
2021/07/02 07:04:29;;;;;;;19.83;13.45;;;19.50;72.80;;;;;;5034395;28;20029;-76
2021/07/02 07:07:15;;;;;;;20.73;14.00;;;19.50;73.70;;;;;;5034438;28;20422;-78
2021/07/02 07:09:40;;;;;;;20.27;14.73;;;19.50;73.70;;;;;;5033576;28;20037;-77
2021/07/02 07:12:06;;;;;;;19.10;13.75;;;19.60;73.60;;;;;;5034390;28;20049;-76
2021/07/02 07:14:32;;;;;;;20.83;14.27;;;20.00;72.70;;;;;;5034338;28;20037;-78
2021/07/02 07:16:59;;;;;;;21.40;15.00;;;20.50;70.50;;;;;;5034207;28;20018;-76
2021/07/02 07:19:30;;;;;;;20.83;14.43;;;20.70;70.10;;;;;;5034171;28;20032;-75
2021/07/02 07:21:57;;;;;;;21.70;15.45;;;20.50;70.50;;;;;;5031858;28;20052;-77
2021/07/02 07:24:23;;;;;;;18.77;13.48;;;20.40;70.90;;;;;;5033994;28;20413;-77
2021/07/02 07:26:49;;;;;;;26.20;15.85;;;21.30;69.30;;;;;;5034107;28;20432;-77
2021/07/02 07:29:15;;;;;;;20.73;15.13;;;21.50;67.90;;;;;;5032637;28;20030;-77
2021/07/02 07:31:40;;;;;;;19.80;14.40;;;21.70;66.60;;;;;;5033950;28;20119;-76
2021/07/02 07:34:06;;;;;;;19.42;14.00;;;21.40;67.10;;;;;;5033914;28;20510;-77
2021/07/02 07:36:35;;;;;;;25.35;16.13;;;21.40;68.40;;;;;;5033694;28;20024;-78
2021/07/02 07:39:00;;;;;;;19.58;13.45;;;21.50;67.60;;;;;;5032503;28;20033;-75
2021/07/02 07:41:26;;;;;;;20.48;13.43;;;22.50;66.20;;;;;;5034170;28;20018;-76
2021/07/02 07:43:52;;;;;;;16.70;12.73;;;22.40;65.20;;;;;;5033962;28;20037;-78
2021/07/02 07:46:18;;;;;;;17.58;12.65;;;22.60;65.00;;;;;;5033870;28;20021;-77
2021/07/02 07:48:44;;;;;;;17.10;12.95;;;22.70;64.70;;;;;;5034157;28;20601;-77
2021/07/02 07:51:32;;;;;;;17.08;12.48;;;22.90;64.00;;;;;;5034252;28;20025;-76
2021/07/02 07:53:59;;;;;;;18.17;13.18;;;23.00;64.20;;;;;;5034183;28;20029;-77
2021/07/02 07:56:26;;;;;;;18.88;13.90;;;23.70;62.10;;;;;;5034371;28;20059;-77
2021/07/02 07:58:53;;;;;;;17.60;13.07;;;24.20;60.40;;;;;;5033934;28;20026;-76
2021/07/02 08:01:20;;;;;;;14.88;10.48;;;23.90;60.80;;;;;;5034187;28;20021;-76
2021/07/02 08:03:46;;;;;;;16.05;11.98;;;23.80;62.50;;;;;;5034003;28;20031;-78
2021/07/02 08:06:11;;;;;;;17.27;12.32;;;24.50;59.50;;;;;;5033969;28;20029;-78
2021/07/02 08:08:37;;;;;;;25.55;12.77;;;24.20;60.60;;;;;;5032718;28;20048;-78
2021/07/02 08:11:03;;;;;;;17.92;12.27;;;24.00;60.70;;;;;;5034203;28;20052;-77
2021/07/02 08:13:30;;;;;;;15.85;12.32;;;23.40;62.70;;;;;;5033720;28;20104;-77
2021/07/02 08:15:57;;;;;;;20.10;14.32;;;23.40;62.30;;;;;;5033991;28;20388;-77
2021/07/02 08:18:23;;;;;;;19.02;13.18;;;23.00;62.80;;;;;;5033946;28;20035;-76
2021/07/02 08:20:49;;;;;;;17.92;12.65;;;22.20;65.20;;;;;;5032676;28;20071;-79
2021/07/02 08:23:15;;;;;;;21.77;12.80;;;22.40;66.40;;;;;;5033714;28;20116;-79
2021/07/02 08:25:41;;;;;;;21.70;13.20;;;22.90;64.60;;;;;;5033565;28;20105;-75
2021/07/02 08:30:52;;;;;;;16.05;12.60;;;23.60;62.40;;;;;;5032895;28;20037;-76
2021/07/02 08:33:18;;;;;;;19.02;12.40;;;23.60;62.90;;;;;;5031706;28;20025;-77
2021/07/02 08:35:47;;;;;;;17.83;13.43;;;24.00;61.10;;;;;;5036200;28;20456;-76
2021/07/02 08:38:14;;;;;;;17.25;13.18;;;24.00;61.20;;;;;;5036819;28;20053;-77
2021/07/02 08:40:41;;;;;;;16.23;11.38;;;24.00;61.30;;;;;;5035723;28;20024;-76
2021/07/02 08:43:07;;;;;;;15.98;12.43;;;23.90;62.40;;;;;;5036998;28;20030;-77
2021/07/02 08:45:33;;;;;;;17.73;13.57;;;23.30;63.80;;;;;;5036949;28;20025;-76
2021/07/02 08:48:04;;;;;;;18.67;13.43;;;24.00;61.80;;;;;;5037021;28;20390;-77
2021/07/02 08:50:32;;;;;;;17.60;12.40;;;24.30;60.60;;;;;;5037057;28;20017;-77
2021/07/02 08:52:58;;;;;;;18.83;13.32;;;24.70;59.70;;;;;;5036984;28;20024;-75
2021/07/02 08:55:24;;;;;;;14.52;11.73;;;25.80;57.20;;;;;;5036761;28;20028;-77
2021/07/02 08:57:50;;;;;;;16.65;11.70;;;26.00;56.40;;;;;;5036685;28;20034;-77
2021/07/02 09:00:17;;;;;;;15.93;12.27;;;26.10;55.50;;;;;;5035399;28;20054;-77
2021/07/02 09:02:42;;;;;;;19.08;11.63;;;26.10;55.90;;;;;;5035746;28;20029;-76
2021/07/02 09:05:39;;;;;;;21.67;11.98;;;26.60;55.90;;;;;;5036659;28;20036;-75
2021/07/02 09:08:16;;;;;;;15.82;10.75;;;25.50;57.20;;;;;;5032198;28;20038;-76
2021/07/02 09:10:41;;;;;;;14.27;10.93;;;25.40;58.40;;;;;;5037709;28;20033;-77
2021/07/02 09:13:07;;;;;;;14.23;11.20;;;26.30;56.60;;;;;;5036306;28;20026;-78
2021/07/02 09:15:48;;;;;;;17.42;13.02;;;27.00;54.40;;;;;;5037379;28;20053;-76
2021/07/02 09:18:15;;;;;;;17.80;12.82;;;26.80;55.60;;;;;;5036432;28;20032;-77
2021/07/02 09:20:43;;;;;;;17.00;13.25;;;26.80;54.20;;;;;;5036883;28;20100;-77
2021/07/02 09:23:15;;;;;;;19.13;12.23;;;26.10;55.00;;;;;;5036241;28;20029;-76
2021/07/02 09:25:52;;;;;;;19.50;14.18;;;25.90;56.90;;;;;;5036484;28;20049;-76
2021/07/02 09:28:19;;;;;;;15.88;12.18;;;25.90;56.30;;;;;;5034634;28;20029;-77
2021/07/02 09:30:52;;;;;;;16.23;13.07;;;25.20;58.10;;;;;;5036306;28;20022;-76
2021/07/02 09:33:24;;;;;;;15.45;12.38;;;26.00;55.90;;;;;;5036312;28;20363;-76
2021/07/02 09:35:56;;;;;;;16.60;11.70;;;27.10;54.50;;;;;;5036157;28;20029;-76
2021/07/02 09:38:40;;;;;;;18.55;12.20;;;28.30;52.50;;;;;;5036579;28;20060;-78
2021/07/02 09:41:07;;;;;;;13.70;11.60;;;28.80;50.40;;;;;;5035358;28;20088;-77
2021/07/02 09:43:33;;;;;;;15.05;10.30;;;28.40;50.60;;;;;;5037239;28;20036;-77
2021/07/02 09:46:02;;;;;;;15.85;12.13;;;28.40;51.10;;;;;;5036886;28;20032;-79
2021/07/02 09:48:30;;;;;;;15.05;12.02;;;28.90;50.00;;;;;;5036935;28;20080;-77
2021/07/02 09:51:02;;;;;;;16.17;11.57;;;28.30;50.40;;;;;;5036800;28;20496;-76
2021/07/02 09:53:32;;;;;;;21.92;13.25;;;27.60;53.10;;;;;;5037063;28;20439;-78
2021/07/02 09:56:00;;;;;;;18.25;12.82;;;27.40;52.60;;;;;;5035560;28;20473;-76
2021/07/02 09:58:28;;;;;;;14.43;11.63;;;26.70;53.60;;;;;;5036736;28;20433;-77
2021/07/02 10:00:56;;;;;;;18.20;13.07;;;26.90;54.20;;;;;;5036499;28;20013;-78
2021/07/02 10:03:33;;;;;;;14.90;11.10;;;26.20;56.30;;;;;;5036506;28;20025;-77
2021/07/02 10:06:01;;;;;;;18.33;14.48;;;26.50;55.20;;;;;;5036548;28;20026;-76
2021/07/02 10:08:29;;;;;;;20.88;14.95;;;25.80;56.40;;;;;;5036619;28;20029;-76
2021/07/02 10:10:56;;;;;;;19.77;15.50;;;25.10;58.40;;;;;;5036178;28;20493;-76
2021/07/02 10:13:35;;;;;;;19.05;14.95;;;25.40;57.70;;;;;;5036238;28;20409;-77
2021/07/02 10:16:05;;;;;;;18.35;15.45;;;25.40;58.70;;;;;;5036382;28;20470;-77
2021/07/02 10:18:32;;;;;;;19.90;15.55;;;25.70;57.10;;;;;;5035759;28;20151;-79
2021/07/02 10:21:04;;;;;;;16.75;12.63;;;25.70;57.40;;;;;;5035874;28;20083;-76
2021/07/02 10:23:35;;;;;;;20.95;14.15;;;25.90;57.40;;;;;;5035669;28;20025;-77
2021/07/02 10:26:03;;;;;;;17.35;13.38;;;25.90;57.50;;;;;;5036999;28;20032;-77
2021/07/02 10:28:30;;;;;;;14.60;11.77;;;25.70;58.80;;;;;;5036225;28;20048;-77
2021/07/02 10:30:56;;;;;;;17.88;13.63;;;26.50;56.60;;;;;;5036158;28;20029;-77
2021/07/02 10:33:25;;;;;;;15.70;12.38;;;27.30;54.30;;;;;;5035806;28;20529;-76
2021/07/02 10:35:57;;;;;;;15.18;12.40;;;28.20;53.70;;;;;;5036374;28;20015;-77
2021/07/02 10:38:23;;;;;;;15.13;12.20;;;28.90;51.30;;;;;;5033574;28;20457;-77
2021/07/02 10:40:49;;;;;;;15.60;12.68;;;29.30;50.80;;;;;;5033784;28;20517;-79
2021/07/02 10:43:26;;;;;;;14.85;11.95;;;29.50;49.50;;;;;;5035045;28;20056;-77
2021/07/02 10:46:07;;;;;;;17.50;12.18;;;29.40;49.30;;;;;;5034996;28;20025;-76
2021/07/02 10:48:56;;;;;;;17.60;13.65;;;28.90;50.40;;;;;;5035462;28;20033;-78
2021/07/02 10:51:31;;;;;;;15.90;13.10;;;27.60;52.90;;;;;;5034630;28;20512;-79
2021/07/02 10:54:15;;;;;;;;;;;27.20;54.40;;;;;;5033690;28;20030;-77
2021/07/02 10:56:44;;;;;;;21.08;14.82;;;26.80;55.50;;;;;;5033707;28;20309;-79
2021/07/02 10:59:12;;;;;;;22.25;14.25;;;26.60;55.70;;;;;;5033029;28;20029;-77
2021/07/02 11:02:07;;;;;;;18.50;13.95;;;26.60;55.00;;;;;;5034492;28;20028;-78
2021/07/02 11:04:41;;;;;;;18.75;14.70;;;26.20;56.40;;;;;;5034457;28;20544;-77
2021/07/02 11:07:25;;;;;;;16.75;13.73;;;26.00;56.50;;;;;;5034400;28;20021;-76
2021/07/02 11:10:02;;;;;;;18.63;13.25;;;26.40;57.10;;;;;;5034613;28;20025;-77
2021/07/02 11:12:33;;;;;;;19.73;15.15;;;25.60;57.50;;;;;;5034572;28;20481;-77
2021/07/02 11:15:02;;;;;;;22.02;15.20;;;24.50;62.10;;;;;;5034255;28;20033;-78
2021/07/02 11:17:38;;;;;;;20.00;14.50;;;24.30;61.80;;;;;;5034160;28;20014;-77
2021/07/02 11:20:07;;;;;;;20.98;15.48;;;24.60;62.20;;;;;;5034296;28;20104;-77
2021/07/02 11:22:40;;;;;;;21.67;14.52;;;24.10;63.10;;;;;;5032697;28;20018;-77
2021/07/02 11:25:15;;;;;;;16.77;13.10;;;24.10;63.60;;;;;;5034124;28;20083;-76
2021/07/02 11:27:45;;;;;;;18.38;14.02;;;24.70;62.30;;;;;;5034253;28;20021;-76
2021/07/02 11:30:36;;;;;;;18.02;12.98;;;24.90;60.70;;;;;;5032227;28;20029;-77
2021/07/02 11:33:08;;;;;;;18.08;12.23;;;25.00;59.40;;;;;;5032382;28;20044;-77
2021/07/02 11:35:38;;;;;;;18.63;12.98;;;25.40;59.90;;;;;;5033802;28;20033;-77
2021/07/02 11:38:13;;;;;;;17.65;12.98;;;25.50;59.30;;;;;;5033509;28;20068;-75
2021/07/02 11:40:40;;;;;;;15.82;12.73;;;25.10;60.10;;;;;;5033778;28;20533;-77
2021/07/02 11:43:09;;;;;;;17.08;12.88;;;25.00;59.60;;;;;;5033693;28;20027;-77
2021/07/02 11:45:53;;;;;;;17.08;12.30;;;24.70;59.90;;;;;;5033712;28;20040;-77
2021/07/02 11:48:24;;;;;;;20.60;13.45;;;24.70;61.10;;;;;;5033891;28;20030;-77
2021/07/02 11:50:52;;;;;;;16.63;11.85;;;24.50;61.30;;;;;;5033506;28;20525;-76
2021/07/02 11:53:34;;;;;;;18.08;12.25;;;24.80;61.00;;;;;;5033526;28;20029;-77
2021/07/02 11:56:15;;;;;;;16.42;12.50;;;25.30;59.70;;;;;;5034856;28;20037;-76
2021/07/02 11:59:02;;;;;;;16.45;12.93;;;26.00;58.70;;;;;;5034974;28;20043;-77
2021/07/02 12:01:40;;;;;;;18.33;13.57;;;25.80;57.00;;;;;;5033415;28;20037;-76
2021/07/02 12:04:07;;;;;;;18.67;13.65;;;25.20;59.00;;;;;;5031923;28;20060;-77
2021/07/02 12:06:37;;;;;;;19.73;12.77;;;24.80;60.20;;;;;;5032603;28;20030;-76
2021/07/02 12:09:11;;;;;;;17.42;13.23;;;24.70;61.70;;;;;;5031797;28;20029;-78
2021/07/02 12:11:45;;;;;;;19.80;13.73;;;24.60;61.90;;;;;;5031066;28;20025;-77
2021/07/02 12:14:15;;;;;;;17.60;12.70;;;24.40;62.60;;;;;;5033011;28;20021;-78
2021/07/02 12:16:43;;;;;;;19.98;13.90;;;24.10;62.30;;;;;;5033122;28;20040;-76
2021/07/02 12:19:15;;;;;;;18.55;13.45;;;24.10;62.90;;;;;;5033102;28;20026;-77
2021/07/02 12:21:51;;;;;;;19.30;13.18;;;24.00;63.10;;;;;;5033102;28;20100;-76
2021/07/02 12:24:21;;;;;;;20.08;12.48;;;24.20;62.90;;;;;;5031741;28;20401;-76
2021/07/02 12:26:54;;;;;;;17.85;13.68;;;24.10;62.20;;;;;;5033283;28;20385;-77
2021/07/02 12:29:20;;;;;;;20.02;14.60;;;23.20;64.70;;;;;;5033232;28;20394;-77
2021/07/02 12:31:52;;;;;;;19.00;14.18;;;22.80;66.60;;;;;;5031659;28;20474;-76
2021/07/02 12:34:26;;;;;;;24.25;18.48;;;22.50;67.00;;;;;;5033057;28;20017;-76
2021/07/02 12:36:59;;;;;;;19.60;13.80;;;22.50;67.50;;;;;;5032846;28;20048;-79
2021/07/02 12:39:32;;;;;;;19.95;14.00;;;22.90;66.30;;;;;;5032952;28;20025;-76
2021/07/02 12:42:18;;;;;;;21.50;13.82;;;23.00;65.90;;;;;;5033092;28;20083;-76
2021/07/02 12:44:47;;;;;;;19.17;14.00;;;22.60;67.60;;;;;;5032707;28;20048;-77
2021/07/02 12:47:13;;;;;;;19.80;14.15;;;22.30;68.90;;;;;;5032703;28;20032;-77
2021/07/02 12:49:51;;;;;;;20.00;13.65;;;22.30;68.70;;;;;;5031734;28;20409;-78
2021/07/02 12:54:50;;;;;;;20.30;14.35;;;22.60;68.30;;;;;;5032828;28;20431;-78
2021/07/02 12:57:32;;;;;;;21.75;14.98;;;22.60;67.10;;;;;;5031223;28;20391;-78